Colelache, Argentina
Current Conditions -  °F | °C
As of 4:00 PM on Saturday 20 Dec 2014 (Local Time) from SAVC Reporting Station
Light Rain Light Rain  
Wind Chill: 50°   Ceiling: Unl
Heat Index: 50°   Visibility: 6mi
Dew Point: 39°   Wind: 12mph
Humidity: 66%   Direction: 340°NNW
Pressure: 29.71"   Gusts: NA
Location:  42.46°S, 66.7°W
Report Text: SAVC 201900Z 34010KT 9999 -RA SCT030FEW040CB 10/04 Q1006
Loading
Personal Weather Stations






























Interactive Weather Map New forecast layout! Learn more

10-Day Weather Forecast

Advertisements
Track Severe Weather on mobile